createdAt,value
2022-10-14T00:04:37.044Z,14.63
2022-10-14T00:09:42.297Z,14.90
2022-10-14T00:14:48.350Z,15.32
2022-10-14T00:19:52.257Z,14.23
2022-10-14T00:24:55.876Z,14.30
2022-10-14T00:30:00.949Z,14.95
2022-10-14T00:35:04.769Z,13.68
2022-10-14T00:40:09.567Z,12.88
2022-10-14T00:45:21.426Z,13.32
2022-10-14T00:50:25.382Z,12.60
2022-10-14T00:55:30.330Z,13.18
2022-10-14T01:05:49.485Z,12.33
2022-10-14T01:11:03.214Z,13.27
2022-10-14T01:16:19.064Z,13.07
2022-10-14T01:21:30.857Z,13.05
2022-10-14T01:27:16.486Z,12.30
2022-10-14T01:32:28.082Z,12.48
2022-10-14T01:37:37.365Z,12.52
2022-10-14T01:42:44.121Z,11.90
2022-10-14T01:47:52.655Z,12.43
2022-10-14T01:53:01.217Z,11.68
2022-10-14T01:58:06.691Z,12.20
2022-10-14T02:03:14.444Z,11.57
2022-10-14T02:08:26.557Z,11.73
2022-10-14T02:13:46.539Z,11.82
2022-10-14T02:18:59.509Z,12.38
2022-10-14T02:24:06.849Z,12.10
2022-10-14T02:29:10.776Z,10.88
2022-10-14T02:34:20.290Z,10.85
2022-10-14T02:39:29.588Z,9.98
2022-10-14T02:44:34.263Z,11.40
2022-10-14T02:49:39.310Z,10.65
2022-10-14T02:54:44.043Z,10.68
2022-10-14T02:59:48.054Z,10.30
2022-10-14T03:04:53.034Z,11.70
2022-10-14T03:09:56.774Z,11.82
2022-10-14T03:15:00.969Z,11.15
2022-10-14T03:20:08.745Z,11.05
2022-10-14T03:25:21.362Z,10.48
2022-10-14T03:30:41.914Z,12.27
2022-10-14T03:35:54.589Z,12.77
2022-10-14T03:41:07.805Z,13.02
2022-10-14T03:46:12.484Z,12.93
2022-10-14T03:51:18.290Z,14.05
2022-10-14T03:56:23.606Z,13.98
2022-10-14T04:01:29.847Z,13.97
2022-10-14T04:07:00.708Z,12.75
2022-10-14T04:12:06.307Z,13.60
2022-10-14T04:17:36.004Z,12.77
2022-10-14T04:22:48.185Z,14.82
2022-10-14T04:27:54.188Z,14.13
2022-10-14T04:33:03.253Z,13.80
2022-10-14T04:38:08.795Z,12.50
2022-10-14T04:43:15.122Z,13.25
2022-10-14T04:48:19.735Z,12.63
2022-10-14T04:53:25.523Z,12.70
2022-10-14T04:58:49.415Z,12.07
2022-10-14T05:03:53.337Z,12.25
2022-10-14T05:08:58.489Z,10.57
2022-10-14T05:14:02.261Z,11.05
2022-10-14T05:19:08.914Z,10.65
2022-10-14T05:24:21.033Z,10.57
2022-10-14T05:29:25.592Z,10.38
2022-10-14T05:34:30.443Z,9.48
2022-10-14T05:39:36.181Z,9.88
2022-10-14T05:49:45.470Z,8.25
2022-10-14T05:54:51.365Z,8.88
2022-10-14T05:59:58.879Z,8.48
2022-10-14T06:05:02.594Z,8.13
2022-10-14T06:10:08.690Z,7.95
2022-10-14T06:15:12.501Z,7.95
2022-10-14T06:20:16.294Z,7.30
2022-10-14T06:25:21.266Z,7.50
2022-10-14T06:30:24.952Z,7.57
2022-10-14T06:35:28.901Z,7.78
2022-10-14T06:40:33.869Z,6.32
2022-10-14T06:45:37.591Z,6.90
2022-10-14T06:50:41.298Z,6.63
2022-10-14T06:55:46.397Z,6.97
2022-10-14T07:00:50.167Z,6.25
2022-10-14T07:05:53.776Z,6.57
2022-10-14T07:10:58.773Z,6.32
2022-10-14T07:16:03.307Z,6.32
2022-10-14T07:21:07.975Z,6.78
2022-10-14T07:26:13.091Z,6.35
2022-10-14T07:31:16.922Z,6.47
2022-10-14T07:36:22.605Z,7.38
2022-10-14T07:41:28.092Z,6.97
2022-10-14T07:46:33.112Z,6.55
2022-10-14T07:51:37.640Z,7.25
2022-10-14T07:56:43.705Z,6.63
2022-10-14T08:01:48.360Z,6.18
2022-10-14T08:06:52.652Z,6.72
2022-10-14T08:12:00.492Z,6.22
2022-10-14T08:17:14.191Z,6.72
2022-10-14T08:22:27.078Z,6.55
2022-10-14T08:27:45.938Z,6.80
2022-10-14T08:33:06.164Z,6.32
2022-10-14T08:38:33.376Z,6.40
2022-10-14T08:44:03.113Z,5.85
2022-10-14T08:49:25.161Z,6.13
2022-10-14T08:54:51.300Z,5.55
2022-10-14T09:00:01.060Z,5.80
2022-10-14T09:05:16.332Z,6.38
2022-10-14T09:10:33.065Z,5.25
2022-10-14T09:15:47.439Z,6.00
2022-10-14T09:21:01.016Z,5.53
2022-10-14T09:26:21.288Z,5.60
2022-10-14T09:31:35.336Z,4.47
2022-10-14T09:36:53.740Z,4.78
2022-10-14T09:42:04.604Z,4.55
2022-10-14T09:47:26.681Z,4.57
2022-10-14T09:52:38.312Z,3.38
2022-10-14T09:58:10.283Z,4.53
2022-10-14T10:03:36.756Z,3.83
2022-10-14T10:09:02.578Z,3.70
2022-10-14T10:14:31.007Z,3.10
2022-10-14T10:19:48.907Z,3.38
2022-10-14T10:25:43.577Z,2.90
2022-10-14T10:31:31.153Z,3.30
2022-10-14T10:37:15.177Z,3.35
2022-10-14T10:42:52.209Z,3.42
2022-10-14T10:48:17.715Z,3.60
2022-10-14T10:54:03.022Z,3.45
2022-10-14T11:00:13.687Z,4.10
2022-10-14T11:05:38.766Z,4.45
2022-10-14T11:11:40.030Z,4.78
2022-10-14T11:17:13.298Z,4.90
2022-10-14T11:22:58.914Z,5.13
2022-10-14T11:28:30.026Z,6.05
2022-10-14T11:34:06.044Z,6.32
2022-10-14T11:39:37.652Z,6.18
2022-10-14T11:44:50.667Z,6.60
2022-10-14T11:50:04.139Z,7.32
2022-10-14T11:55:21.949Z,8.35
2022-10-14T12:00:45.434Z,7.15
2022-10-14T12:06:02.270Z,7.28
2022-10-14T12:11:22.020Z,6.68
2022-10-14T12:16:50.685Z,6.40
2022-10-14T12:22:15.238Z,6.47
2022-10-14T12:27:31.239Z,6.13
2022-10-14T12:33:38.199Z,5.32
2022-10-14T12:39:39.629Z,6.18
2022-10-14T12:45:33.613Z,5.55
2022-10-14T12:50:52.912Z,5.43
2022-10-14T12:56:13.927Z,6.30
2022-10-14T13:01:48.217Z,6.50
2022-10-14T13:07:41.170Z,6.32
2022-10-14T13:13:08.731Z,7.55
2022-10-14T13:19:07.293Z,8.15
2022-10-14T13:24:17.960Z,8.82
2022-10-14T13:29:32.249Z,8.60
2022-10-14T13:34:48.284Z,9.95
2022-10-14T13:39:55.508Z,9.10
2022-10-14T13:45:06.706Z,9.73
2022-10-14T13:50:13.282Z,8.85
2022-10-14T13:55:20.823Z,9.57
2022-10-14T14:00:41.487Z,10.52
2022-10-14T14:05:45.742Z,9.68
2022-10-14T14:11:15.770Z,9.77
2022-10-14T14:16:22.797Z,9.57
2022-10-14T14:21:28.391Z,10.35
2022-10-14T14:26:38.296Z,10.35
2022-10-14T14:42:36.562Z,9.15
2022-10-14T14:47:41.141Z,9.70
2022-10-14T14:52:45.927Z,9.40
2022-10-14T14:57:58.126Z,9.57
2022-10-14T15:03:05.049Z,9.10
2022-10-14T15:08:20.172Z,8.73
2022-10-14T15:13:45.009Z,8.73
2022-10-14T15:18:48.679Z,9.38
2022-10-14T15:24:03.291Z,9.57
2022-10-14T15:29:18.748Z,9.20
2022-10-14T15:34:23.863Z,8.98
2022-10-14T15:39:27.560Z,8.07
2022-10-14T15:44:32.752Z,8.88
2022-10-14T15:49:40.731Z,8.15
2022-10-14T15:54:45.905Z,8.25
2022-10-14T15:59:53.831Z,8.30
2022-10-14T16:10:29.316Z,6.95
2022-10-14T16:15:45.012Z,7.68
2022-10-14T16:20:49.244Z,8.48
2022-10-14T16:25:53.718Z,7.97
2022-10-14T16:31:00.516Z,7.93
2022-10-14T16:36:07.015Z,8.57
2022-10-14T16:41:12.163Z,9.40
2022-10-14T16:46:17.282Z,7.95
2022-10-14T16:51:22.017Z,8.67
2022-10-14T16:56:44.550Z,8.60
2022-10-14T17:01:51.162Z,10.25
2022-10-14T17:06:58.232Z,8.85
2022-10-14T17:12:02.243Z,9.80
2022-10-14T17:17:07.470Z,9.80
2022-10-14T17:22:11.135Z,9.40
2022-10-14T17:27:14.902Z,8.70
2022-10-14T17:32:20.645Z,12.82
2022-10-14T17:37:24.580Z,10.40
2022-10-14T17:42:28.357Z,8.70
2022-10-14T17:47:34.107Z,9.23
2022-10-14T17:52:37.817Z,9.73
2022-10-14T17:57:41.514Z,8.48
2022-10-14T18:02:46.771Z,8.55
2022-10-14T18:07:50.608Z,9.45
2022-10-14T18:12:55.077Z,11.20
2022-10-14T18:18:00.288Z,11.35
2022-10-14T18:23:04.079Z,12.25
2022-10-14T18:28:07.719Z,10.32
2022-10-14T18:33:12.846Z,12.90
2022-10-14T18:38:16.554Z,15.68
2022-10-14T18:43:20.274Z,13.88
2022-10-14T18:48:25.414Z,9.85
2022-10-14T18:53:31.177Z,8.88
2022-10-14T18:58:35.577Z,10.05
2022-10-14T19:03:40.909Z,9.18
2022-10-14T19:08:46.093Z,9.07
2022-10-14T19:13:51.924Z,9.23
2022-10-14T19:18:58.723Z,9.00
2022-10-14T19:24:03.792Z,9.45
2022-10-14T19:29:11.605Z,9.30
2022-10-14T19:34:17.477Z,10.20
2022-10-14T19:39:21.165Z,10.77
2022-10-14T19:44:24.932Z,11.00
2022-10-14T19:49:30.228Z,11.40
2022-10-14T19:54:33.919Z,10.50
2022-10-14T19:59:37.658Z,11.55
2022-10-14T20:04:42.811Z,11.82
2022-10-14T20:09:46.442Z,11.43
2022-10-14T20:14:50.142Z,12.50
2022-10-14T20:19:55.345Z,11.20
2022-10-14T20:24:59.429Z,12.05
2022-10-14T20:30:03.111Z,12.68
2022-10-14T20:35:12.753Z,12.43
2022-10-14T20:40:18.754Z,13.30
2022-10-14T20:45:22.555Z,13.50
2022-10-14T20:50:27.917Z,12.75
2022-10-14T20:55:33.354Z,13.40
2022-10-14T21:00:37.344Z,12.63
2022-10-14T21:17:05.337Z,12.55
2022-10-14T21:22:10.725Z,12.18
2022-10-14T21:27:14.553Z,14.23
2022-10-14T21:32:19.847Z,13.63
2022-10-14T21:37:23.858Z,12.98
2022-10-14T21:59:23.228Z,13.73
2022-10-14T22:04:27.763Z,13.73
2022-10-14T22:09:31.733Z,13.60
2022-10-14T22:14:36.773Z,13.95
2022-10-14T22:19:40.520Z,13.52
2022-10-14T22:24:44.772Z,13.63
2022-10-14T22:29:49.868Z,14.10
2022-10-14T22:34:54.448Z,15.27
2022-10-14T22:40:11.244Z,14.95
2022-10-14T22:50:37.501Z,15.15
2022-10-14T22:55:58.615Z,15.57
